Flight Track Log - Related Links

Times and Time Zones

All times are in EDT time to prevent confusion due to time zone crossing. See the EGF2984 flight status page for this flight to view local times or setup timezone preferences in your user account.

Time Position Orientation Groundspeed Altitude Reporting Facility
EDT Latitude Longitude Course Direction KTS MPH feet Rate Location/Type
Sat 08:09:15 PM 32.9167 -97.0333 65° Northeast 163 188 1,400  Level Dallas / Fort Worth TRACON
Sat 08:10:09 PM 32.9667 -97.0167 16° North 206 237 3,300 2,158 Climbing Dallas / Fort Worth TRACON
Sat 08:11:00 PM 32.6833 -96.8056 90° East  Level FlightAware Approximate
Sat 08:11:09 PM 33.0167 -96.9833 29° Northeast 250 288 5,500  Level Dallas / Fort Worth TRACON
Sat 08:12:00 PM 32.7263 -96.6714 68° East  Level FlightAware Approximate
Sat 08:12:55 PM 32.9947 -96.8264 99° East 299 344 9,500  Level Fort Worth Center
Sat 08:13:00 PM 32.7714 -96.5378 65° Northeast  Level FlightAware Approximate
Sat 08:13:55 PM 32.9694 -96.7375 109° East 306 352 10,900  Level Fort Worth Center
Sat 08:14:00 PM 32.8218 -96.4067 65° Northeast  Level FlightAware Approximate
Sat 08:14:55 PM 32.9353 -96.6064 107° East 353 406 12,000  Level Fort Worth Center
Sat 08:15:55 PM 32.9072 -96.4953 107° East 382 440 13,000 500 Climbing Fort Worth Center
Sat 08:16:55 PM 32.8708 -96.3572 107° East 395 455 13,000 50 Level Fort Worth Center
Sat 08:17:55 PM 32.8656 -96.2361 93° East 401 461 13,100 950 Climbing Fort Worth Center
Sat 08:18:55 PM 32.8703 -96.0878 88° East 406 467 14,900 1,866 Climbing Fort Worth Center
Sat 08:19:54 PM 32.8711 -95.9689 89° East 401 461 16,800 1,900 Climbing Fort Worth Center
Sat 08:20:55 PM 32.8756 -95.8206 88° East 401 461 18,700 1,785 Climbing Fort Worth Center
Sat 08:21:55 PM 32.8761 -95.7017 90° East 401 461 20,400 1,613 Climbing Fort Worth Center
Sat 08:22:54 PM 32.8783 -95.5656 89° East 406 467 21,900 1,563 Climbing Fort Worth Center
Sat 08:23:54 PM 32.8803 -95.4197 89° East 422 486 23,500 1,587 Climbing Fort Worth Center
Sat 08:24:55 PM 32.8903 -95.2661 86° East 427 491 25,100 1,600 Climbing Fort Worth Center
Sat 08:25:54 PM 32.9169 -95.1219 78° East 432 497 26,700 1,550 Climbing Fort Worth Center
Sat 08:26:55 PM 32.9372 -94.9803 80° East 432 497 28,200 1,488 Climbing Fort Worth Center
Sat 08:27:55 PM 32.9594 -94.8361 80° East 432 497 29,700 1,350 Climbing Fort Worth Center
Sat 08:28:55 PM 32.9814 -94.6942 80° East 432 497 30,900 650 Climbing Fort Worth Center
Sat 08:29:55 PM 33.0053 -94.5400 79° East 448 516 31,000 50 Climbing Fort Worth Center
Sat 08:30:55 PM 33.0264 -94.3758 81° East 475 547 31,000  Level Fort Worth Center
Sat 08:31:55 PM 33.0514 -94.2114 80° East 493 567 31,000  Level Fort Worth Center
Sat 08:32:55 PM 33.0742 -94.0444 81° East 505 581 31,000 151 Level Fort Worth Center
Sat 08:33:54 PM 33.0969 -93.8800 81° East 505 581 31,300 900 Climbing Fort Worth Center
Sat 08:34:55 PM 33.1214 -93.7153 80° East 505 581 32,800 843 Climbing Fort Worth Center
Sat 08:35:55 PM 33.1458 -93.5556 80° East 505 581 33,000 101 Climbing Fort Worth Center
Sat 08:36:54 PM 33.1678 -93.3908 81° East 505 581 33,000  Level Fort Worth Center
Sat 08:37:54 PM 33.1939 -93.2308 79° East 500 575 33,000  Level Fort Worth Center
Sat 08:38:54 PM 33.2153 -93.0658 81° East 500 575 33,000 400 Level Fort Worth Center
Sat 08:39:54 PM 33.2350 -92.9086 81° East 494 568 33,800 1,000 Climbing Fort Worth Center
Sat 08:40:54 PM 33.2772 -92.7572 72° East 481 554 35,000 600 Climbing Fort Worth Center
Sat 08:41:54 PM 33.3133 -92.6039 74° East 476 548 35,000  Level Fort Worth Center
Sat 08:42:54 PM 33.3194 -92.4419 87° East 476 548 35,000  Level Fort Worth Center
Sat 08:44:21 PM 33.3219 -92.2169 89° East 481 554 35,000  Level Memphis Center
Sat 08:45:21 PM 33.3097 -92.0475 95° East 491 565 35,000  Level Memphis Center
Sat 08:46:21 PM 33.2911 -91.8831 98° East 503 579 35,000  Level Memphis Center
Sat 08:47:21 PM 33.2556 -91.7036 103° East 503 579 35,000  Level Memphis Center
Sat 08:48:21 PM 33.2092 -91.5492 110° East 498 573 35,000  Level Memphis Center
Sat 08:49:21 PM 33.1644 -91.3994 110° East 485 558 35,000  Level Memphis Center
Sat 08:50:22 PM 33.1197 -91.2453 109° East 485 558 35,000  Level Memphis Center
Sat 08:51:21 PM 33.0789 -91.0986 108° East 485 558 35,000  Level Memphis Center
Sat 08:52:21 PM 33.0422 -90.9472 106° East 479 551 35,000  Level Memphis Center
Sat 08:53:21 PM 33.0344 -90.7908 93° East 474 545 35,000  Level Memphis Center
Sat 08:54:21 PM 33.0244 -90.6347 94° East 469 540 35,000  Level Memphis Center
Sat 08:55:21 PM 33.0164 -90.4761 93° East 469 540 35,000  Level Memphis Center
Sat 08:56:21 PM 33.0039 -90.3200 95° East 474 545 35,000  Level Memphis Center
Sat 08:57:21 PM 32.9933 -90.1617 95° East 474 545 35,000  Level Memphis Center
Sat 08:58:21 PM 32.9844 -90.0106 94° East 474 545 35,000  Level Memphis Center
Sat 08:59:21 PM 32.9714 -89.8497 95° East 474 545 35,000  Level Memphis Center
Sat 09:00:21 PM 32.9622 -89.6864 94° East 486 559 35,000  Level Memphis Center
Sat 09:01:21 PM 32.9489 -89.5353 96° East 478 550 35,000  Level Memphis Center
Sat 09:02:21 PM 32.9372 -89.3819 95° East 473 544 35,000  Level Memphis Center
Sat 09:03:21 PM 32.9278 -89.2261 94° East 473 544 35,000  Level Memphis Center
Sat 09:04:21 PM 32.9136 -89.0706 96° East 473 544 35,000  Level Memphis Center
Sat 09:05:21 PM 32.9014 -88.9147 95° East 473 544 35,000  Level Memphis Center
Sat 09:06:21 PM 32.8892 -88.7642 95° East 468 539 35,000  Level Memphis Center
Sat 09:07:21 PM 32.8767 -88.6058 95° East 468 539 35,000  Level Memphis Center
Sat 09:08:21 PM 32.8639 -88.4553 96° East 468 539 35,000  Level Memphis Center
Sat 09:10:29 PM 32.8347 -88.1400 96° East 480 552 35,000  Level Atlanta Center
Sat 09:11:29 PM 32.8194 -87.9714 96° East 475 547 35,000  Level Atlanta Center
Sat 09:12:29 PM 32.8075 -87.8200 95° East 468 539 35,000  Level Atlanta Center
Sat 09:13:29 PM 32.7972 -87.6689 95° East 468 539 35,000 -300 Level Atlanta Center
Sat 09:14:29 PM 32.7808 -87.5175 97° East 468 539 34,400 -750 Descending Atlanta Center
Sat 09:15:29 PM 32.7642 -87.3636 97° East 463 533 33,500 -950 Descending Atlanta Center
Sat 09:16:29 PM 32.7494 -87.2100 96° East 468 539 32,500 -1,350 Descending Atlanta Center
Sat 09:17:29 PM 32.7347 -87.0539 96° East 468 539 30,800 -1,850 Descending Atlanta Center
Sat 09:18:29 PM 32.7172 -86.9028 98° East 468 539 28,800 -2,000 Descending Atlanta Center
Sat 09:19:29 PM 32.7061 -86.7517 95° East 461 531 26,800 -1,950 Descending Atlanta Center
Sat 09:20:29 PM 32.6928 -86.5983 96° East 466 536 24,900 -1,400 Descending Atlanta Center
Sat 09:21:29 PM 32.6792 -86.4425 96° East 466 536 24,000 -1,600 Descending Atlanta Center
Sat 09:22:29 PM 32.6675 -86.2917 95° East 466 536 21,700 -2,650 Descending Atlanta Center
Sat 09:23:29 PM 32.6533 -86.1458 97° East 459 528 18,700 -2,700 Descending Atlanta Center
Sat 09:24:29 PM 32.6328 -86.0047 100° East 444 511 16,300 -2,350 Descending Atlanta Center
Sat 09:25:29 PM 32.6181 -85.8686 97° East 425 489 14,000 -1,850 Descending Atlanta Center
Sat 09:26:29 PM 32.6056 -85.7303 96° East 420 483 12,600 -1,600 Descending Atlanta Center
Sat 09:27:29 PM 32.5903 -85.6019 98° East 413 475 10,800 -1,500 Descending Atlanta Center
Sat 09:28:29 PM 32.5772 -85.4956 98° East 370 426 9,600 -1,500 Descending Atlanta Center
Sat 09:29:29 PM 32.5678 -85.3994 97° East 326 375 7,800 -1,750 Descending Atlanta Center
Sat 09:30:29 PM 32.5561 -85.3081 99° East 293 337 6,100 -1,700 Descending Atlanta Center
Sat 09:31:29 PM 32.5486 -85.2217 96° East 274 315 4,400 -1,500 Descending Atlanta Center
Sat 09:32:29 PM 32.5369 -85.1403 100° East 261 300 3,100 -1,000 Descending Atlanta Center
Sat 09:33:29 PM 32.5314 -85.0686 95° East 234 269 2,400 -700 Descending Atlanta Center

Login

Don't have an account? Register now (free) for customized features, flight alerts, and more!